sensor_id;sensor_type;location;lat;lon;timestamp;P1;durP1;ratioP1;P2;durP2;ratioP2
13406;SDS011;6774;48.208;10.766;2023-12-07T00:00:19;8.43;;;7.63;;
13406;SDS011;6774;48.208;10.766;2023-12-07T00:02:47;6.63;;;6.03;;
13406;SDS011;6774;48.208;10.766;2023-12-07T00:05:15;7.93;;;7.17;;
13406;SDS011;6774;48.208;10.766;2023-12-07T00:07:43;7.10;;;6.50;;
13406;SDS011;6774;48.208;10.766;2023-12-07T00:10:12;8.93;;;8.03;;
13406;SDS011;6774;48.208;10.766;2023-12-07T00:12:41;7.00;;;6.40;;
13406;SDS011;6774;48.208;10.766;2023-12-07T00:15:09;7.87;;;7.13;;
13406;SDS011;6774;48.208;10.766;2023-12-07T00:17:37;8.13;;;7.33;;
13406;SDS011;6774;48.208;10.766;2023-12-07T00:20:05;10.13;;;9.10;;
13406;SDS011;6774;48.208;10.766;2023-12-07T00:22:34;7.40;;;6.73;;
13406;SDS011;6774;48.208;10.766;2023-12-07T00:25:02;6.67;;;6.00;;
13406;SDS011;6774;48.208;10.766;2023-12-07T00:27:31;8.40;;;7.63;;
13406;SDS011;6774;48.208;10.766;2023-12-07T00:29:59;7.53;;;6.83;;
13406;SDS011;6774;48.208;10.766;2023-12-07T00:32:27;9.00;;;7.57;;
13406;SDS011;6774;48.208;10.766;2023-12-07T00:34:55;8.63;;;7.73;;
13406;SDS011;6774;48.208;10.766;2023-12-07T00:37:22;8.17;;;7.37;;
13406;SDS011;6774;48.208;10.766;2023-12-07T00:39:50;7.30;;;6.63;;
13406;SDS011;6774;48.208;10.766;2023-12-07T00:42:18;6.70;;;6.20;;
13406;SDS011;6774;48.208;10.766;2023-12-07T00:44:48;15.43;;;8.07;;
13406;SDS011;6774;48.208;10.766;2023-12-07T00:47:15;9.20;;;8.33;;
13406;SDS011;6774;48.208;10.766;2023-12-07T00:49:43;8.27;;;7.57;;
13406;SDS011;6774;48.208;10.766;2023-12-07T00:52:12;8.87;;;8.00;;
13406;SDS011;6774;48.208;10.766;2023-12-07T00:54:40;11.70;;;10.70;;
13406;SDS011;6774;48.208;10.766;2023-12-07T00:57:07;8.33;;;7.63;;
13406;SDS011;6774;48.208;10.766;2023-12-07T00:59:35;9.03;;;8.17;;
13406;SDS011;6774;48.208;10.766;2023-12-07T01:02:05;9.37;;;8.47;;
13406;SDS011;6774;48.208;10.766;2023-12-07T01:04:33;9.63;;;8.63;;
13406;SDS011;6774;48.208;10.766;2023-12-07T01:07:01;25.83;;;11.20;;
13406;SDS011;6774;48.208;10.766;2023-12-07T01:09:29;9.80;;;8.73;;
13406;SDS011;6774;48.208;10.766;2023-12-07T01:11:57;10.00;;;9.00;;
13406;SDS011;6774;48.208;10.766;2023-12-07T01:14:25;9.73;;;8.23;;
13406;SDS011;6774;48.208;10.766;2023-12-07T01:16:53;8.60;;;7.77;;
13406;SDS011;6774;48.208;10.766;2023-12-07T01:19:22;7.80;;;7.17;;
13406;SDS011;6774;48.208;10.766;2023-12-07T01:21:51;6.40;;;5.90;;
13406;SDS011;6774;48.208;10.766;2023-12-07T01:24:19;10.47;;;7.83;;
13406;SDS011;6774;48.208;10.766;2023-12-07T01:26:47;9.07;;;6.37;;
13406;SDS011;6774;48.208;10.766;2023-12-07T01:29:15;6.97;;;6.33;;
13406;SDS011;6774;48.208;10.766;2023-12-07T01:31:44;8.23;;;7.53;;
13406;SDS011;6774;48.208;10.766;2023-12-07T01:34:12;6.17;;;5.63;;
13406;SDS011;6774;48.208;10.766;2023-12-07T01:36:41;6.87;;;6.27;;
13406;SDS011;6774;48.208;10.766;2023-12-07T01:39:09;7.10;;;6.37;;
13406;SDS011;6774;48.208;10.766;2023-12-07T01:41:39;8.53;;;7.80;;
13406;SDS011;6774;48.208;10.766;2023-12-07T01:44:06;9.10;;;7.23;;
13406;SDS011;6774;48.208;10.766;2023-12-07T01:46:34;8.57;;;7.80;;
13406;SDS011;6774;48.208;10.766;2023-12-07T01:49:03;7.47;;;6.77;;
13406;SDS011;6774;48.208;10.766;2023-12-07T01:51:31;7.57;;;6.87;;
13406;SDS011;6774;48.208;10.766;2023-12-07T01:54:00;7.77;;;7.00;;
13406;SDS011;6774;48.208;10.766;2023-12-07T01:56:29;7.80;;;7.10;;
13406;SDS011;6774;48.208;10.766;2023-12-07T01:58:57;8.70;;;7.90;;
13406;SDS011;6774;48.208;10.766;2023-12-07T02:01:25;8.80;;;7.87;;
13406;SDS011;6774;48.208;10.766;2023-12-07T02:03:53;8.40;;;7.60;;
13406;SDS011;6774;48.208;10.766;2023-12-07T02:06:21;10.27;;;9.17;;
13406;SDS011;6774;48.208;10.766;2023-12-07T02:08:49;8.60;;;7.67;;
13406;SDS011;6774;48.208;10.766;2023-12-07T02:11:18;8.90;;;8.10;;
13406;SDS011;6774;48.208;10.766;2023-12-07T02:13:45;9.07;;;8.17;;
13406;SDS011;6774;48.208;10.766;2023-12-07T02:16:15;9.30;;;8.30;;
13406;SDS011;6774;48.208;10.766;2023-12-07T02:18:51;9.30;;;8.50;;
13406;SDS011;6774;48.208;10.766;2023-12-07T02:21:25;9.43;;;8.47;;
13406;SDS011;6774;48.208;10.766;2023-12-07T02:24:01;8.67;;;7.87;;
13406;SDS011;6774;48.208;10.766;2023-12-07T02:26:33;7.37;;;6.67;;
13406;SDS011;6774;48.208;10.766;2023-12-07T02:29:03;9.00;;;8.20;;
13406;SDS011;6774;48.208;10.766;2023-12-07T02:31:31;6.97;;;6.17;;
13406;SDS011;6774;48.208;10.766;2023-12-07T02:34:00;8.33;;;7.27;;
13406;SDS011;6774;48.208;10.766;2023-12-07T02:36:28;9.23;;;8.13;;
13406;SDS011;6774;48.208;10.766;2023-12-07T02:39:00;11.40;;;8.23;;
13406;SDS011;6774;48.208;10.766;2023-12-07T02:41:30;9.33;;;8.53;;
13406;SDS011;6774;48.208;10.766;2023-12-07T02:44:00;7.50;;;6.83;;
13406;SDS011;6774;48.208;10.766;2023-12-07T02:46:28;7.27;;;6.57;;
13406;SDS011;6774;48.208;10.766;2023-12-07T02:48:56;9.57;;;8.57;;
13406;SDS011;6774;48.208;10.766;2023-12-07T02:51:24;7.83;;;7.17;;
13406;SDS011;6774;48.208;10.766;2023-12-07T02:53:52;9.53;;;8.63;;
13406;SDS011;6774;48.208;10.766;2023-12-07T02:56:20;7.47;;;6.80;;
13406;SDS011;6774;48.208;10.766;2023-12-07T02:58:47;8.23;;;7.43;;
13406;SDS011;6774;48.208;10.766;2023-12-07T03:01:17;8.20;;;7.40;;
13406;SDS011;6774;48.208;10.766;2023-12-07T03:03:45;9.33;;;8.43;;
13406;SDS011;6774;48.208;10.766;2023-12-07T03:06:12;9.67;;;7.23;;
13406;SDS011;6774;48.208;10.766;2023-12-07T03:08:42;8.27;;;7.53;;
13406;SDS011;6774;48.208;10.766;2023-12-07T03:11:09;10.40;;;8.97;;
13406;SDS011;6774;48.208;10.766;2023-12-07T03:13:37;9.47;;;8.53;;
13406;SDS011;6774;48.208;10.766;2023-12-07T03:16:06;8.40;;;7.57;;
13406;SDS011;6774;48.208;10.766;2023-12-07T03:18:36;8.23;;;7.50;;
13406;SDS011;6774;48.208;10.766;2023-12-07T03:21:04;8.63;;;7.73;;
13406;SDS011;6774;48.208;10.766;2023-12-07T03:23:32;9.47;;;7.10;;
13406;SDS011;6774;48.208;10.766;2023-12-07T03:26:00;6.03;;;5.50;;
13406;SDS011;6774;48.208;10.766;2023-12-07T03:28:28;7.63;;;6.90;;
13406;SDS011;6774;48.208;10.766;2023-12-07T03:30:56;7.43;;;6.70;;
13406;SDS011;6774;48.208;10.766;2023-12-07T03:33:24;9.03;;;7.60;;
13406;SDS011;6774;48.208;10.766;2023-12-07T03:35:53;7.60;;;6.97;;
13406;SDS011;6774;48.208;10.766;2023-12-07T03:38:21;8.60;;;7.80;;
13406;SDS011;6774;48.208;10.766;2023-12-07T03:40:48;8.27;;;7.47;;
13406;SDS011;6774;48.208;10.766;2023-12-07T03:43:17;9.87;;;8.90;;
13406;SDS011;6774;48.208;10.766;2023-12-07T03:45:47;8.27;;;7.63;;
13406;SDS011;6774;48.208;10.766;2023-12-07T03:48:15;7.90;;;7.10;;
13406;SDS011;6774;48.208;10.766;2023-12-07T03:50:43;7.77;;;7.07;;
13406;SDS011;6774;48.208;10.766;2023-12-07T03:53:12;8.60;;;7.80;;
13406;SDS011;6774;48.208;10.766;2023-12-07T03:55:40;7.93;;;7.13;;
13406;SDS011;6774;48.208;10.766;2023-12-07T03:58:08;7.13;;;6.47;;
13406;SDS011;6774;48.208;10.766;2023-12-07T04:00:36;11.57;;;7.77;;
13406;SDS011;6774;48.208;10.766;2023-12-07T04:03:04;8.80;;;7.93;;
13406;SDS011;6774;48.208;10.766;2023-12-07T04:05:32;8.87;;;7.97;;
13406;SDS011;6774;48.208;10.766;2023-12-07T04:08:00;9.27;;;8.27;;
13406;SDS011;6774;48.208;10.766;2023-12-07T04:10:29;6.87;;;6.20;;
13406;SDS011;6774;48.208;10.766;2023-12-07T04:12:57;7.50;;;6.70;;
13406;SDS011;6774;48.208;10.766;2023-12-07T04:15:25;7.70;;;6.77;;
13406;SDS011;6774;48.208;10.766;2023-12-07T04:17:53;7.20;;;6.50;;
13406;SDS011;6774;48.208;10.766;2023-12-07T04:20:21;13.07;;;11.40;;
13406;SDS011;6774;48.208;10.766;2023-12-07T04:22:49;8.43;;;7.63;;
13406;SDS011;6774;48.208;10.766;2023-12-07T04:25:17;9.07;;;8.17;;
13406;SDS011;6774;48.208;10.766;2023-12-07T04:27:46;8.73;;;7.73;;
13406;SDS011;6774;48.208;10.766;2023-12-07T04:30:14;9.27;;;8.17;;
13406;SDS011;6774;48.208;10.766;2023-12-07T04:32:41;9.17;;;8.27;;
13406;SDS011;6774;48.208;10.766;2023-12-07T04:35:09;11.07;;;7.57;;
13406;SDS011;6774;48.208;10.766;2023-12-07T04:37:37;10.00;;;7.90;;
13406;SDS011;6774;48.208;10.766;2023-12-07T04:40:06;11.43;;;9.50;;
13406;SDS011;6774;48.208;10.766;2023-12-07T04:42:35;13.97;;;9.17;;
13406;SDS011;6774;48.208;10.766;2023-12-07T04:45:05;10.13;;;9.10;;
13406;SDS011;6774;48.208;10.766;2023-12-07T04:47:33;9.27;;;8.33;;
13406;SDS011;6774;48.208;10.766;2023-12-07T04:50:01;10.70;;;9.70;;
13406;SDS011;6774;48.208;10.766;2023-12-07T04:52:29;8.93;;;8.03;;
13406;SDS011;6774;48.208;10.766;2023-12-07T04:54:57;8.60;;;7.87;;
13406;SDS011;6774;48.208;10.766;2023-12-07T04:57:24;9.57;;;8.70;;
13406;SDS011;6774;48.208;10.766;2023-12-07T04:59:52;9.60;;;8.60;;
13406;SDS011;6774;48.208;10.766;2023-12-07T05:02:22;9.43;;;7.33;;
13406;SDS011;6774;48.208;10.766;2023-12-07T05:04:50;9.27;;;8.40;;
13406;SDS011;6774;48.208;10.766;2023-12-07T05:07:17;8.10;;;7.30;;
13406;SDS011;6774;48.208;10.766;2023-12-07T05:09:45;10.17;;;9.17;;
13406;SDS011;6774;48.208;10.766;2023-12-07T05:12:13;6.97;;;6.37;;
13406;SDS011;6774;48.208;10.766;2023-12-07T05:14:41;8.80;;;8.00;;
13406;SDS011;6774;48.208;10.766;2023-12-07T05:17:09;8.47;;;7.50;;
13406;SDS011;6774;48.208;10.766;2023-12-07T05:19:38;8.07;;;7.27;;
13406;SDS011;6774;48.208;10.766;2023-12-07T05:22:06;9.33;;;7.80;;
13406;SDS011;6774;48.208;10.766;2023-12-07T05:24:34;9.13;;;8.30;;
13406;SDS011;6774;48.208;10.766;2023-12-07T05:27:03;7.37;;;6.63;;
13406;SDS011;6774;48.208;10.766;2023-12-07T05:29:31;7.30;;;6.70;;
13406;SDS011;6774;48.208;10.766;2023-12-07T05:31:59;6.60;;;6.00;;
13406;SDS011;6774;48.208;10.766;2023-12-07T05:34:26;6.70;;;5.97;;
13406;SDS011;6774;48.208;10.766;2023-12-07T05:36:55;6.77;;;6.07;;
13406;SDS011;6774;48.208;10.766;2023-12-07T05:39:23;6.30;;;5.67;;
13406;SDS011;6774;48.208;10.766;2023-12-07T05:41:52;4.63;;;4.23;;
13406;SDS011;6774;48.208;10.766;2023-12-07T05:44:19;6.27;;;5.67;;
13406;SDS011;6774;48.208;10.766;2023-12-07T05:46:49;12.10;;;7.03;;
13406;SDS011;6774;48.208;10.766;2023-12-07T05:49:17;8.90;;;7.27;;
13406;SDS011;6774;48.208;10.766;2023-12-07T05:51:44;7.53;;;6.13;;
13406;SDS011;6774;48.208;10.766;2023-12-07T05:54:13;6.07;;;5.57;;
13406;SDS011;6774;48.208;10.766;2023-12-07T05:56:41;6.10;;;5.20;;
13406;SDS011;6774;48.208;10.766;2023-12-07T05:59:09;7.13;;;6.30;;
13406;SDS011;6774;48.208;10.766;2023-12-07T06:01:37;7.60;;;6.30;;
13406;SDS011;6774;48.208;10.766;2023-12-07T06:04:05;8.13;;;7.33;;
13406;SDS011;6774;48.208;10.766;2023-12-07T06:06:35;6.80;;;6.10;;
13406;SDS011;6774;48.208;10.766;2023-12-07T06:09:03;9.20;;;6.53;;
13406;SDS011;6774;48.208;10.766;2023-12-07T06:11:33;6.93;;;5.50;;
13406;SDS011;6774;48.208;10.766;2023-12-07T06:14:01;8.50;;;7.70;;
13406;SDS011;6774;48.208;10.766;2023-12-07T06:16:32;6.70;;;6.07;;
13406;SDS011;6774;48.208;10.766;2023-12-07T06:19:00;8.73;;;7.43;;
13406;SDS011;6774;48.208;10.766;2023-12-07T06:21:29;27.30;;;11.37;;
13406;SDS011;6774;48.208;10.766;2023-12-07T06:23:57;8.27;;;6.17;;
13406;SDS011;6774;48.208;10.766;2023-12-07T06:26:26;6.43;;;5.70;;
13406;SDS011;6774;48.208;10.766;2023-12-07T06:28:55;38.70;;;13.30;;
13406;SDS011;6774;48.208;10.766;2023-12-07T06:31:23;19.17;;;8.70;;
13406;SDS011;6774;48.208;10.766;2023-12-07T06:33:51;6.40;;;5.47;;
13406;SDS011;6774;48.208;10.766;2023-12-07T06:36:19;8.93;;;7.87;;
13406;SDS011;6774;48.208;10.766;2023-12-07T06:38:47;6.30;;;5.53;;
13406;SDS011;6774;48.208;10.766;2023-12-07T06:41:16;7.73;;;6.93;;
13406;SDS011;6774;48.208;10.766;2023-12-07T06:43:44;8.33;;;7.23;;
13406;SDS011;6774;48.208;10.766;2023-12-07T06:46:13;19.33;;;8.43;;
13406;SDS011;6774;48.208;10.766;2023-12-07T06:48:43;15.80;;;11.53;;
13406;SDS011;6774;48.208;10.766;2023-12-07T06:51:11;24.30;;;10.93;;
13406;SDS011;6774;48.208;10.766;2023-12-07T06:53:41;9.20;;;7.67;;
13406;SDS011;6774;48.208;10.766;2023-12-07T06:56:09;6.43;;;5.70;;
13406;SDS011;6774;48.208;10.766;2023-12-07T06:58:36;4.53;;;4.13;;
13406;SDS011;6774;48.208;10.766;2023-12-07T07:01:04;26.30;;;9.73;;
13406;SDS011;6774;48.208;10.766;2023-12-07T07:03:34;6.67;;;5.90;;
13406;SDS011;6774;48.208;10.766;2023-12-07T07:06:02;8.40;;;7.47;;
13406;SDS011;6774;48.208;10.766;2023-12-07T07:08:31;7.30;;;6.20;;
13406;SDS011;6774;48.208;10.766;2023-12-07T07:10:59;11.80;;;7.27;;
13406;SDS011;6774;48.208;10.766;2023-12-07T07:13:26;8.40;;;7.23;;
13406;SDS011;6774;48.208;10.766;2023-12-07T07:15:54;10.63;;;6.93;;
13406;SDS011;6774;48.208;10.766;2023-12-07T07:18:22;7.83;;;6.83;;
13406;SDS011;6774;48.208;10.766;2023-12-07T07:20:53;8.47;;;7.67;;
13406;SDS011;6774;48.208;10.766;2023-12-07T07:23:20;5.40;;;4.57;;
13406;SDS011;6774;48.208;10.766;2023-12-07T07:25:48;7.10;;;6.43;;
13406;SDS011;6774;48.208;10.766;2023-12-07T07:28:16;6.27;;;5.37;;
13406;SDS011;6774;48.208;10.766;2023-12-07T07:30:44;4.47;;;4.07;;
13406;SDS011;6774;48.208;10.766;2023-12-07T07:33:12;6.60;;;6.00;;
13406;SDS011;6774;48.208;10.766;2023-12-07T07:35:39;8.57;;;6.07;;
13406;SDS011;6774;48.208;10.766;2023-12-07T07:38:08;5.87;;;5.30;;
13406;SDS011;6774;48.208;10.766;2023-12-07T07:40:37;6.30;;;5.70;;
13406;SDS011;6774;48.208;10.766;2023-12-07T07:43:04;6.43;;;5.23;;
13406;SDS011;6774;48.208;10.766;2023-12-07T07:45:32;7.90;;;5.73;;
13406;SDS011;6774;48.208;10.766;2023-12-07T07:48:01;7.03;;;5.07;;
13406;SDS011;6774;48.208;10.766;2023-12-07T07:50:29;7.53;;;6.83;;
13406;SDS011;6774;48.208;10.766;2023-12-07T07:52:57;6.80;;;6.20;;
13406;SDS011;6774;48.208;10.766;2023-12-07T07:55:26;6.80;;;6.20;;
13406;SDS011;6774;48.208;10.766;2023-12-07T07:57:54;8.17;;;6.13;;
13406;SDS011;6774;48.208;10.766;2023-12-07T08:00:22;9.47;;;7.87;;
13406;SDS011;6774;48.208;10.766;2023-12-07T08:02:52;7.23;;;6.53;;
13406;SDS011;6774;48.208;10.766;2023-12-07T08:05:20;6.23;;;5.63;;
13406;SDS011;6774;48.208;10.766;2023-12-07T08:07:48;4.23;;;3.77;;
13406;SDS011;6774;48.208;10.766;2023-12-07T08:10:16;6.27;;;5.67;;
13406;SDS011;6774;48.208;10.766;2023-12-07T08:12:45;5.50;;;5.00;;
13406;SDS011;6774;48.208;10.766;2023-12-07T08:15:13;9.47;;;7.93;;
13406;SDS011;6774;48.208;10.766;2023-12-07T08:17:41;5.50;;;5.00;;
13406;SDS011;6774;48.208;10.766;2023-12-07T08:20:09;6.90;;;6.20;;
13406;SDS011;6774;48.208;10.766;2023-12-07T08:22:37;5.77;;;5.27;;
13406;SDS011;6774;48.208;10.766;2023-12-07T08:25:07;5.70;;;5.20;;
13406;SDS011;6774;48.208;10.766;2023-12-07T08:27:37;5.03;;;4.63;;
13406;SDS011;6774;48.208;10.766;2023-12-07T08:30:08;6.30;;;5.70;;
13406;SDS011;6774;48.208;10.766;2023-12-07T08:32:36;9.40;;;7.97;;
13406;SDS011;6774;48.208;10.766;2023-12-07T08:35:05;5.73;;;5.23;;
13406;SDS011;6774;48.208;10.766;2023-12-07T08:37:36;7.43;;;6.60;;
13406;SDS011;6774;48.208;10.766;2023-12-07T08:40:05;6.30;;;5.67;;
13406;SDS011;6774;48.208;10.766;2023-12-07T08:42:34;6.00;;;5.40;;
13406;SDS011;6774;48.208;10.766;2023-12-07T08:45:02;5.83;;;5.33;;
13406;SDS011;6774;48.208;10.766;2023-12-07T08:47:31;3.97;;;3.67;;
13406;SDS011;6774;48.208;10.766;2023-12-07T08:49:59;2.57;;;2.37;;
13406;SDS011;6774;48.208;10.766;2023-12-07T08:52:27;3.03;;;2.83;;
13406;SDS011;6774;48.208;10.766;2023-12-07T08:55:10;3.50;;;3.20;;
13406;SDS011;6774;48.208;10.766;2023-12-07T08:57:38;2.97;;;2.73;;
13406;SDS011;6774;48.208;10.766;2023-12-07T09:00:06;5.10;;;3.77;;
13406;SDS011;6774;48.208;10.766;2023-12-07T09:02:36;4.57;;;4.27;;
13406;SDS011;6774;48.208;10.766;2023-12-07T09:05:13;3.63;;;3.40;;
13406;SDS011;6774;48.208;10.766;2023-12-07T09:07:41;3.27;;;3.07;;
13406;SDS011;6774;48.208;10.766;2023-12-07T09:10:09;3.20;;;3.00;;
13406;SDS011;6774;48.208;10.766;2023-12-07T09:12:38;4.17;;;3.90;;
13406;SDS011;6774;48.208;10.766;2023-12-07T09:15:06;4.37;;;4.07;;
13406;SDS011;6774;48.208;10.766;2023-12-07T09:17:38;2.83;;;2.63;;
13406;SDS011;6774;48.208;10.766;2023-12-07T09:20:07;4.73;;;4.33;;
13406;SDS011;6774;48.208;10.766;2023-12-07T09:22:39;4.20;;;3.90;;
13406;SDS011;6774;48.208;10.766;2023-12-07T09:25:08;3.40;;;3.20;;
13406;SDS011;6774;48.208;10.766;2023-12-07T09:27:36;3.73;;;3.43;;
13406;SDS011;6774;48.208;10.766;2023-12-07T09:30:05;4.17;;;3.87;;
13406;SDS011;6774;48.208;10.766;2023-12-07T09:32:33;4.37;;;4.03;;
13406;SDS011;6774;48.208;10.766;2023-12-07T09:35:06;3.80;;;3.50;;
13406;SDS011;6774;48.208;10.766;2023-12-07T09:37:41;4.03;;;3.83;;
13406;SDS011;6774;48.208;10.766;2023-12-07T09:40:12;4.83;;;4.53;;
13406;SDS011;6774;48.208;10.766;2023-12-07T09:42:42;4.70;;;4.40;;
13406;SDS011;6774;48.208;10.766;2023-12-07T09:45:11;4.07;;;3.77;;
13406;SDS011;6774;48.208;10.766;2023-12-07T09:47:39;4.93;;;4.63;;
13406;SDS011;6774;48.208;10.766;2023-12-07T09:50:09;3.70;;;3.50;;
13406;SDS011;6774;48.208;10.766;2023-12-07T09:52:38;4.70;;;4.33;;
13406;SDS011;6774;48.208;10.766;2023-12-07T09:55:15;4.10;;;3.80;;
13406;SDS011;6774;48.208;10.766;2023-12-07T09:57:44;3.63;;;3.43;;
13406;SDS011;6774;48.208;10.766;2023-12-07T10:00:13;4.90;;;4.53;;
13406;SDS011;6774;48.208;10.766;2023-12-07T10:02:41;4.33;;;4.03;;
13406;SDS011;6774;48.208;10.766;2023-12-07T10:05:11;4.37;;;4.07;;
13406;SDS011;6774;48.208;10.766;2023-12-07T10:07:43;5.63;;;5.23;;
13406;SDS011;6774;48.208;10.766;2023-12-07T10:10:13;4.73;;;4.43;;
13406;SDS011;6774;48.208;10.766;2023-12-07T10:12:45;4.67;;;4.37;;
13406;SDS011;6774;48.208;10.766;2023-12-07T10:15:14;5.70;;;5.40;;
13406;SDS011;6774;48.208;10.766;2023-12-07T10:17:44;5.30;;;5.00;;
13406;SDS011;6774;48.208;10.766;2023-12-07T10:20:16;3.93;;;3.63;;
13406;SDS011;6774;48.208;10.766;2023-12-07T10:22:45;5.73;;;5.33;;
13406;SDS011;6774;48.208;10.766;2023-12-07T10:25:13;5.87;;;5.43;;
13406;SDS011;6774;48.208;10.766;2023-12-07T10:27:42;4.97;;;4.77;;
13406;SDS011;6774;48.208;10.766;2023-12-07T10:30:10;6.27;;;5.87;;
13406;SDS011;6774;48.208;10.766;2023-12-07T10:32:39;6.10;;;5.60;;
13406;SDS011;6774;48.208;10.766;2023-12-07T10:35:07;6.80;;;6.20;;
13406;SDS011;6774;48.208;10.766;2023-12-07T10:37:38;6.03;;;5.67;;
13406;SDS011;6774;48.208;10.766;2023-12-07T10:40:06;8.53;;;7.93;;
13406;SDS011;6774;48.208;10.766;2023-12-07T10:42:36;7.90;;;7.30;;
13406;SDS011;6774;48.208;10.766;2023-12-07T10:45:05;6.70;;;6.30;;
13406;SDS011;6774;48.208;10.766;2023-12-07T10:47:35;6.23;;;5.83;;
13406;SDS011;6774;48.208;10.766;2023-12-07T10:50:05;6.30;;;5.90;;
13406;SDS011;6774;48.208;10.766;2023-12-07T10:52:45;8.70;;;8.07;;
13406;SDS011;6774;48.208;10.766;2023-12-07T10:55:16;8.97;;;8.20;;
13406;SDS011;6774;48.208;10.766;2023-12-07T10:57:47;9.10;;;8.40;;
13406;SDS011;6774;48.208;10.766;2023-12-07T11:00:15;7.97;;;7.37;;
13406;SDS011;6774;48.208;10.766;2023-12-07T11:02:58;6.73;;;6.33;;
13406;SDS011;6774;48.208;10.766;2023-12-07T11:05:27;6.17;;;5.77;;
13406;SDS011;6774;48.208;10.766;2023-12-07T11:07:59;6.20;;;5.70;;
13406;SDS011;6774;48.208;10.766;2023-12-07T11:10:34;6.87;;;6.37;;
13406;SDS011;6774;48.208;10.766;2023-12-07T11:13:08;5.90;;;5.47;;
13406;SDS011;6774;48.208;10.766;2023-12-07T11:15:44;7.57;;;7.03;;
13406;SDS011;6774;48.208;10.766;2023-12-07T11:18:12;8.83;;;8.00;;
13406;SDS011;6774;48.208;10.766;2023-12-07T11:20:41;8.53;;;6.33;;
13406;SDS011;6774;48.208;10.766;2023-12-07T11:23:12;8.70;;;7.90;;
13406;SDS011;6774;48.208;10.766;2023-12-07T11:25:44;7.83;;;7.20;;
13406;SDS011;6774;48.208;10.766;2023-12-07T11:28:12;7.07;;;6.50;;
13406;SDS011;6774;48.208;10.766;2023-12-07T11:30:41;7.13;;;6.73;;
13406;SDS011;6774;48.208;10.766;2023-12-07T11:33:10;6.53;;;6.03;;
13406;SDS011;6774;48.208;10.766;2023-12-07T11:38:34;5.73;;;5.33;;
13406;SDS011;6774;48.208;10.766;2023-12-07T11:41:03;5.57;;;5.07;;
13406;SDS011;6774;48.208;10.766;2023-12-07T11:43:41;9.37;;;8.67;;
13406;SDS011;6774;48.208;10.766;2023-12-07T11:46:13;7.60;;;6.83;;
13406;SDS011;6774;48.208;10.766;2023-12-07T11:48:47;5.80;;;5.33;;
13406;SDS011;6774;48.208;10.766;2023-12-07T11:51:17;7.03;;;6.43;;
13406;SDS011;6774;48.208;10.766;2023-12-07T11:53:46;7.47;;;6.80;;
13406;SDS011;6774;48.208;10.766;2023-12-07T11:56:17;6.23;;;5.27;;
13406;SDS011;6774;48.208;10.766;2023-12-07T11:58:48;5.70;;;5.20;;
13406;SDS011;6774;48.208;10.766;2023-12-07T12:01:16;5.60;;;5.20;;
13406;SDS011;6774;48.208;10.766;2023-12-07T12:03:44;5.17;;;4.83;;
13406;SDS011;6774;48.208;10.766;2023-12-07T12:06:12;4.90;;;4.50;;
13406;SDS011;6774;48.208;10.766;2023-12-07T12:08:40;4.97;;;4.67;;
13406;SDS011;6774;48.208;10.766;2023-12-07T12:11:10;6.80;;;6.30;;
13406;SDS011;6774;48.208;10.766;2023-12-07T12:13:38;5.93;;;5.43;;
13406;SDS011;6774;48.208;10.766;2023-12-07T12:16:06;9.97;;;5.10;;
13406;SDS011;6774;48.208;10.766;2023-12-07T12:18:35;7.53;;;6.30;;
13406;SDS011;6774;48.208;10.766;2023-12-07T12:21:06;6.63;;;6.17;;
13406;SDS011;6774;48.208;10.766;2023-12-07T12:23:34;7.93;;;5.60;;
13406;SDS011;6774;48.208;10.766;2023-12-07T12:26:03;5.43;;;5.03;;
13406;SDS011;6774;48.208;10.766;2023-12-07T12:28:32;6.43;;;5.93;;
13406;SDS011;6774;48.208;10.766;2023-12-07T12:31:04;6.00;;;5.40;;
13406;SDS011;6774;48.208;10.766;2023-12-07T12:33:32;7.57;;;7.00;;
13406;SDS011;6774;48.208;10.766;2023-12-07T12:36:04;5.03;;;4.63;;
13406;SDS011;6774;48.208;10.766;2023-12-07T12:38:34;6.90;;;6.17;;
13406;SDS011;6774;48.208;10.766;2023-12-07T12:41:09;10.60;;;8.63;;
13406;SDS011;6774;48.208;10.766;2023-12-07T12:43:38;8.10;;;7.47;;
13406;SDS011;6774;48.208;10.766;2023-12-07T12:46:06;7.80;;;6.03;;
13406;SDS011;6774;48.208;10.766;2023-12-07T12:48:34;7.37;;;6.77;;
13406;SDS011;6774;48.208;10.766;2023-12-07T12:51:08;6.60;;;6.13;;
13406;SDS011;6774;48.208;10.766;2023-12-07T12:53:41;5.97;;;5.47;;
13406;SDS011;6774;48.208;10.766;2023-12-07T12:56:11;6.23;;;5.70;;
13406;SDS011;6774;48.208;10.766;2023-12-07T12:58:41;7.23;;;5.73;;
13406;SDS011;6774;48.208;10.766;2023-12-07T13:01:09;7.57;;;6.87;;
13406;SDS011;6774;48.208;10.766;2023-12-07T13:03:37;8.83;;;7.93;;
13406;SDS011;6774;48.208;10.766;2023-12-07T13:06:05;9.73;;;8.67;;
13406;SDS011;6774;48.208;10.766;2023-12-07T13:08:33;9.97;;;6.77;;
13406;SDS011;6774;48.208;10.766;2023-12-07T13:11:01;7.40;;;6.67;;
13406;SDS011;6774;48.208;10.766;2023-12-07T13:13:28;7.10;;;6.50;;
13406;SDS011;6774;48.208;10.766;2023-12-07T13:15:58;6.57;;;5.97;;
13406;SDS011;6774;48.208;10.766;2023-12-07T13:18:26;5.77;;;5.23;;
13406;SDS011;6774;48.208;10.766;2023-12-07T13:20:54;5.57;;;5.17;;
13406;SDS011;6774;48.208;10.766;2023-12-07T13:23:22;4.67;;;4.33;;
13406;SDS011;6774;48.208;10.766;2023-12-07T13:25:50;4.63;;;4.33;;
13406;SDS011;6774;48.208;10.766;2023-12-07T13:28:18;5.60;;;4.27;;
13406;SDS011;6774;48.208;10.766;2023-12-07T13:30:46;6.07;;;5.67;;
13406;SDS011;6774;48.208;10.766;2023-12-07T13:33:15;6.30;;;5.67;;
13406;SDS011;6774;48.208;10.766;2023-12-07T13:35:53;4.67;;;4.37;;
13406;SDS011;6774;48.208;10.766;2023-12-07T13:38:22;3.10;;;2.90;;
13406;SDS011;6774;48.208;10.766;2023-12-07T13:40:50;4.03;;;3.73;;
13406;SDS011;6774;48.208;10.766;2023-12-07T13:43:18;4.10;;;3.70;;
13406;SDS011;6774;48.208;10.766;2023-12-07T13:45:47;2.57;;;2.37;;
13406;SDS011;6774;48.208;10.766;2023-12-07T13:48:18;2.97;;;2.77;;
13406;SDS011;6774;48.208;10.766;2023-12-07T13:50:46;4.90;;;4.23;;
13406;SDS011;6774;48.208;10.766;2023-12-07T13:53:15;3.17;;;2.93;;
13406;SDS011;6774;48.208;10.766;2023-12-07T13:55:44;3.10;;;2.80;;
13406;SDS011;6774;48.208;10.766;2023-12-07T13:58:12;3.10;;;2.80;;
13406;SDS011;6774;48.208;10.766;2023-12-07T14:00:40;4.40;;;4.00;;
13406;SDS011;6774;48.208;10.766;2023-12-07T14:03:12;6.17;;;5.70;;
13406;SDS011;6774;48.208;10.766;2023-12-07T14:05:41;4.70;;;4.40;;
13406;SDS011;6774;48.208;10.766;2023-12-07T14:08:09;4.20;;;3.80;;
13406;SDS011;6774;48.208;10.766;2023-12-07T14:10:37;5.37;;;4.07;;
13406;SDS011;6774;48.208;10.766;2023-12-07T14:13:04;3.90;;;3.60;;
13406;SDS011;6774;48.208;10.766;2023-12-07T14:15:34;3.93;;;3.67;;
13406;SDS011;6774;48.208;10.766;2023-12-07T14:18:10;4.03;;;3.73;;
13406;SDS011;6774;48.208;10.766;2023-12-07T14:20:42;3.43;;;3.13;;
13406;SDS011;6774;48.208;10.766;2023-12-07T14:23:30;7.37;;;5.33;;
13406;SDS011;6774;48.208;10.766;2023-12-07T14:25:57;7.47;;;3.83;;
13406;SDS011;6774;48.208;10.766;2023-12-07T14:28:29;4.37;;;3.97;;
13406;SDS011;6774;48.208;10.766;2023-12-07T14:31:00;4.07;;;2.33;;
13406;SDS011;6774;48.208;10.766;2023-12-07T14:33:28;2.27;;;2.07;;
13406;SDS011;6774;48.208;10.766;2023-12-07T14:36:00;5.93;;;3.73;;
13406;SDS011;6774;48.208;10.766;2023-12-07T14:38:28;2.43;;;2.27;;
13406;SDS011;6774;48.208;10.766;2023-12-07T14:40:55;3.17;;;2.93;;
13406;SDS011;6774;48.208;10.766;2023-12-07T14:43:24;3.17;;;2.87;;
13406;SDS011;6774;48.208;10.766;2023-12-07T14:45:51;2.83;;;2.63;;
13406;SDS011;6774;48.208;10.766;2023-12-07T14:48:19;3.80;;;2.50;;
13406;SDS011;6774;48.208;10.766;2023-12-07T14:50:47;5.20;;;2.87;;
13406;SDS011;6774;48.208;10.766;2023-12-07T14:53:17;2.53;;;2.33;;
13406;SDS011;6774;48.208;10.766;2023-12-07T14:55:46;3.27;;;2.97;;
13406;SDS011;6774;48.208;10.766;2023-12-07T14:58:14;1.87;;;1.77;;